Aérodrome :
LOGIN :

S'inscrire | Disclaimer

   EN    FR    IT 

 










Légende :    VFR   VFR Marginal   IFR   IFR Intensif   IFR Très Intensif
Visi : 
Plafond : 
>= 8 km
>= 3000ft
5 à 8 km
1000 à 3000 ft
1500m à 5 km
500 à 1000 ft
800 à 1500m
200 à 500 ft
< 800m
< 200 ft
Symboles :   Orages  Brouillard  Fortes neiges  Fortes précipitations  Vent > 20 kt
SIGMETs :   Divers  Orages  Givrage  Turbulence  Onde Orograph.  Cendres Volcan.






- Altitude de l'aérodrome : 287 ft


LFRL - Lanveoc Poulmic

DERNIER METAR :
  • 250230Z AUTO 07006KT CAVOK 16/15 Q1015

METARs EXPIRÉS :
  • 250200Z AUTO 06006KT CAVOK 16/15 Q1015
  • 250130Z AUTO 06004KT CAVOK 16/14 Q1016
  • 250100Z AUTO 07005KT 9999 FEW047 BKN056 16/14 Q1016
  • 250030Z AUTO 07005KT 040V110 9999 SCT046 BKN054 16/14 Q1016
  • 250000Z AUTO 06006KT CAVOK 16/14 Q1016
  • 242330Z AUTO 04005KT CAVOK 15/14 Q1016
  • 242300Z AUTO 05005KT CAVOK 16/14 Q1016 NOSIG
  • 242230Z AUTO 04004KT CAVOK 16/14 Q1017 NOSIG
  • 242200Z AUTO 04005KT CAVOK 16/14 Q1017 NOSIG

TAF TAF LFRL
Valide du 24 à 12h jusqu'au 25 à 12h UTC


241100Z 2412/2512 35010KT 9999 SCT020
BECMG 2423/2501 05010KT



MET'MAP, la Météo Aéronautique d'un coup d'oeil ! - Copyright ORBIFLY Décembre 2007 - Disclaimer

ORBIFLY MET'MAP TEAM :

Programmation & Développement : Alexandra Zaïnal
Sur une idée originale de : Baudouin d'Aumeries
Soutien technique & logistique : Manuel Goepfert
Assistance : Marc-Olivier Méhu




SOURCES & CREDITS :

   NOAA